createdAt,value
2023-05-05T00:01:57.135Z,74.49
2023-05-05T00:04:24.319Z,75.16
2023-05-05T00:06:51.167Z,76.72
2023-05-05T00:09:17.949Z,77.54
2023-05-05T00:11:44.577Z,77.55
2023-05-05T00:14:11.396Z,78.09
2023-05-05T00:16:38.078Z,78.02
2023-05-05T00:19:05.046Z,77.34
2023-05-05T00:21:31.839Z,77.71
2023-05-05T00:23:58.703Z,77.70
2023-05-05T00:26:25.372Z,77.73
2023-05-05T00:28:52.093Z,77.63
2023-05-05T00:31:18.858Z,77.90
2023-05-05T00:33:45.618Z,77.86
2023-05-05T00:36:13.189Z,78.27
2023-05-05T00:38:39.867Z,78.83
2023-05-05T00:41:07.073Z,79.16
2023-05-05T00:43:33.829Z,78.86
2023-05-05T00:46:13.346Z,78.89
2023-05-05T00:48:39.943Z,79.52
2023-05-05T00:51:08.796Z,79.63
2023-05-05T00:53:35.681Z,79.11
2023-05-05T00:56:02.425Z,79.09
2023-05-05T00:58:30.041Z,80.90
2023-05-05T01:00:56.927Z,81.26
2023-05-05T01:03:23.693Z,81.02
2023-05-05T01:05:53.796Z,81.14
2023-05-05T01:08:32.532Z,81.20
2023-05-05T01:11:02.627Z,80.88
2023-05-05T01:13:53.480Z,80.49
2023-05-05T01:16:25.272Z,80.34
2023-05-05T01:18:55.128Z,80.25
2023-05-05T01:21:26.852Z,79.64
2023-05-05T01:24:16.655Z,80.19
2023-05-05T01:27:04.058Z,79.84
2023-05-05T01:29:42.904Z,79.80
2023-05-05T01:32:12.380Z,79.60
2023-05-05T01:34:46.244Z,80.19
2023-05-05T01:37:17.651Z,81.00
2023-05-05T01:39:50.224Z,81.65
2023-05-05T01:42:18.055Z,81.63
2023-05-05T01:44:45.920Z,81.83
2023-05-05T01:47:14.920Z,82.08
2023-05-05T01:49:46.043Z,82.20
2023-05-05T01:52:16.514Z,82.10
2023-05-05T01:54:47.062Z,81.97
2023-05-05T01:57:14.661Z,81.97
2023-05-05T01:59:41.797Z,82.01
2023-05-05T02:02:10.880Z,81.73
2023-05-05T02:04:40.780Z,82.65
2023-05-05T02:07:08.353Z,83.50
2023-05-05T02:09:36.040Z,83.68
2023-05-05T02:12:04.019Z,83.14
2023-05-05T02:14:32.273Z,82.57
2023-05-05T02:16:59.085Z,82.28
2023-05-05T02:19:31.557Z,82.08
2023-05-05T02:21:58.405Z,82.07
2023-05-05T02:24:25.947Z,82.16
2023-05-05T02:26:53.436Z,81.71
2023-05-05T02:29:23.805Z,81.46
2023-05-05T02:31:52.947Z,81.26
2023-05-05T02:34:23.977Z,80.72
2023-05-05T02:36:53.907Z,80.83
2023-05-05T02:39:25.016Z,81.67
2023-05-05T02:41:53.537Z,82.10
2023-05-05T02:44:24.057Z,81.67
2023-05-05T02:46:51.530Z,81.78
2023-05-05T02:49:18.780Z,81.18
2023-05-05T02:51:46.124Z,80.90
2023-05-05T02:54:20.104Z,80.83
2023-05-05T02:56:48.319Z,81.03
2023-05-05T02:59:19.074Z,81.40
2023-05-05T03:02:05.978Z,81.33
2023-05-05T03:04:41.509Z,81.47
2023-05-05T03:07:23.212Z,81.57
2023-05-05T03:10:02.670Z,82.03
2023-05-05T03:12:34.045Z,81.61
2023-05-05T03:15:10.362Z,82.01
2023-05-05T03:17:39.529Z,81.65
2023-05-05T03:20:07.168Z,81.33
2023-05-05T03:22:36.597Z,80.74
2023-05-05T03:25:05.565Z,80.71
2023-05-05T03:27:32.492Z,81.06
2023-05-05T03:29:59.674Z,82.37
2023-05-05T03:32:26.932Z,82.09
2023-05-05T03:34:54.395Z,82.12
2023-05-05T03:37:25.745Z,82.49
2023-05-05T03:39:52.974Z,82.88
2023-05-05T03:42:20.215Z,82.79
2023-05-05T03:44:47.019Z,82.65
2023-05-05T03:47:13.727Z,82.50
2023-05-05T03:49:40.862Z,82.33
2023-05-05T03:52:08.124Z,82.10
2023-05-05T03:54:35.211Z,82.16
2023-05-05T03:57:02.293Z,83.07
2023-05-05T03:59:29.098Z,82.99
2023-05-05T04:01:56.201Z,82.71
2023-05-05T04:04:22.876Z,82.33
2023-05-05T04:06:49.681Z,82.27
2023-05-05T04:09:16.406Z,82.28
2023-05-05T04:11:43.402Z,82.03
2023-05-05T04:14:10.339Z,82.12
2023-05-05T04:16:37.491Z,81.73
2023-05-05T04:19:04.313Z,81.31
2023-05-05T04:21:31.822Z,80.71
2023-05-05T04:23:59.095Z,80.16
2023-05-05T04:26:27.178Z,80.59
2023-05-05T04:28:55.144Z,79.71
2023-05-05T04:31:21.945Z,78.88
2023-05-05T04:33:48.777Z,79.14
2023-05-05T04:36:15.534Z,79.09
2023-05-05T04:38:42.706Z,78.64
2023-05-05T04:41:09.565Z,77.66
2023-05-05T04:43:37.398Z,76.18
2023-05-05T04:46:04.739Z,70.77
2023-05-05T04:48:33.808Z,71.15
2023-05-05T04:51:04.000Z,70.72
2023-05-05T04:53:30.955Z,70.51
2023-05-05T04:55:59.483Z,70.49
2023-05-05T04:58:27.645Z,70.29
2023-05-05T05:00:57.506Z,70.54
2023-05-05T05:03:24.781Z,68.57
2023-05-05T05:05:52.871Z,67.39
2023-05-05T05:08:21.076Z,67.84
2023-05-05T05:10:50.285Z,65.50
2023-05-05T05:13:17.011Z,64.80
2023-05-05T05:15:47.585Z,62.07
2023-05-05T05:18:14.520Z,62.77
2023-05-05T05:20:47.280Z,60.54
2023-05-05T05:23:15.160Z,59.36
2023-05-05T05:25:43.345Z,58.79
2023-05-05T05:28:20.632Z,58.82
2023-05-05T05:30:54.043Z,58.67
2023-05-05T05:33:23.021Z,57.90
2023-05-05T05:35:52.414Z,56.72
2023-05-05T05:38:21.370Z,56.04
2023-05-05T05:40:51.133Z,55.41
2023-05-05T05:43:18.351Z,54.12
2023-05-05T05:45:45.562Z,55.40
2023-05-05T05:48:12.664Z,52.79
2023-05-05T05:50:42.988Z,50.91
2023-05-05T05:53:13.755Z,50.97
2023-05-05T05:55:45.900Z,49.66
2023-05-05T05:58:14.179Z,49.13
2023-05-05T06:00:43.153Z,49.13
2023-05-05T06:03:13.969Z,48.10
2023-05-05T06:05:47.001Z,47.70
2023-05-05T06:08:38.136Z,45.54
2023-05-05T06:11:26.945Z,44.39
2023-05-05T06:17:34.263Z,41.68
2023-05-05T06:20:12.717Z,40.83
2023-05-05T06:22:46.050Z,40.67
2023-05-05T06:25:22.770Z,40.82
2023-05-05T06:27:53.363Z,41.45
2023-05-05T06:30:21.926Z,40.57
2023-05-05T06:32:51.514Z,40.23
2023-05-05T06:35:18.928Z,39.56
2023-05-05T06:37:52.103Z,39.61
2023-05-05T06:40:23.414Z,40.54
2023-05-05T06:42:56.041Z,41.56
2023-05-05T06:45:27.673Z,41.70
2023-05-05T06:47:55.224Z,41.81
2023-05-05T06:50:22.298Z,41.75
2023-05-05T06:52:50.799Z,42.01
2023-05-05T06:55:22.956Z,42.83
2023-05-05T06:57:51.997Z,42.51
2023-05-05T07:00:19.125Z,41.74
2023-05-05T07:02:47.853Z,41.47
2023-05-05T07:05:15.013Z,40.57
2023-05-05T07:07:55.679Z,39.80
2023-05-05T07:10:25.578Z,39.41
2023-05-05T07:12:54.191Z,39.00
2023-05-05T07:15:29.127Z,39.28
2023-05-05T07:17:57.155Z,38.53
2023-05-05T07:20:24.745Z,38.49
2023-05-05T07:22:52.839Z,38.89
2023-05-05T07:25:20.694Z,38.21
2023-05-05T07:27:49.316Z,38.25
2023-05-05T07:30:19.151Z,38.74
2023-05-05T07:32:46.781Z,39.06
2023-05-05T07:35:13.836Z,38.69
2023-05-05T07:37:43.961Z,37.73
2023-05-05T07:40:12.744Z,37.45
2023-05-05T07:42:40.272Z,35.79
2023-05-05T07:45:10.322Z,35.45
2023-05-05T07:47:38.562Z,34.41
2023-05-05T07:50:06.839Z,33.12
2023-05-05T07:52:46.751Z,32.46
2023-05-05T07:55:17.056Z,32.33
2023-05-05T07:57:51.370Z,31.08
2023-05-05T08:00:21.669Z,30.37
2023-05-05T08:03:01.692Z,29.37
2023-05-05T08:05:30.267Z,29.07
2023-05-05T08:07:57.827Z,29.54
2023-05-05T08:10:30.331Z,29.57
2023-05-05T08:13:01.023Z,28.32
2023-05-05T08:15:34.509Z,27.97
2023-05-05T08:18:04.461Z,27.42
2023-05-05T08:20:35.227Z,26.86
2023-05-05T08:23:07.997Z,26.69
2023-05-05T08:25:37.537Z,27.34
2023-05-05T08:28:05.385Z,27.02
2023-05-05T08:30:34.426Z,26.81
2023-05-05T08:33:04.469Z,27.18
2023-05-05T08:35:34.614Z,26.38
2023-05-05T08:38:09.071Z,25.90
2023-05-05T08:40:42.006Z,25.61
2023-05-05T08:43:11.414Z,25.82
2023-05-05T08:45:42.418Z,27.18
2023-05-05T08:48:12.548Z,27.70
2023-05-05T08:50:44.744Z,27.61
2023-05-05T08:53:16.915Z,28.91
2023-05-05T08:55:51.947Z,30.02
2023-05-05T08:58:19.292Z,30.53
2023-05-05T09:00:46.465Z,30.46
2023-05-05T09:03:14.483Z,29.69
2023-05-05T09:05:42.294Z,30.24
2023-05-05T09:08:13.860Z,30.71
2023-05-05T09:10:44.380Z,31.73
2023-05-05T09:13:14.804Z,32.59
2023-05-05T09:15:43.285Z,32.95
2023-05-05T09:18:13.115Z,33.32
2023-05-05T09:20:47.228Z,34.57
2023-05-05T09:23:15.805Z,34.57
2023-05-05T09:25:47.354Z,34.45
2023-05-05T09:28:15.738Z,33.04
2023-05-05T09:30:49.084Z,31.45
2023-05-05T09:33:28.356Z,30.95
2023-05-05T09:35:59.150Z,29.48
2023-05-05T09:38:26.739Z,27.98
2023-05-05T09:40:58.039Z,27.10
2023-05-05T09:43:27.782Z,27.08
2023-05-05T09:46:09.857Z,29.10
2023-05-05T09:48:44.006Z,29.96
2023-05-05T09:51:20.650Z,29.32
2023-05-05T09:53:57.112Z,28.63
2023-05-05T09:56:36.261Z,28.53
2023-05-05T09:59:10.348Z,29.02
2023-05-05T10:01:40.835Z,30.00
2023-05-05T10:04:09.247Z,30.57
2023-05-05T10:06:39.659Z,29.61
2023-05-05T10:09:06.715Z,28.93
2023-05-05T10:11:34.012Z,28.01
2023-05-05T10:14:01.889Z,27.39
2023-05-05T10:16:29.496Z,25.77
2023-05-05T10:18:58.147Z,25.33
2023-05-05T10:21:25.967Z,23.79
2023-05-05T10:24:15.194Z,23.14
2023-05-05T10:26:43.627Z,22.26
2023-05-05T10:29:16.851Z,22.27
2023-05-05T10:31:49.349Z,22.10
2023-05-05T10:34:35.128Z,22.10
2023-05-05T10:37:04.090Z,22.89
2023-05-05T10:39:30.959Z,24.86
2023-05-05T10:42:01.442Z,26.22
2023-05-05T10:44:33.081Z,26.03
2023-05-05T10:47:01.396Z,25.42
2023-05-05T10:49:44.199Z,25.69
2023-05-05T10:52:13.935Z,26.03
2023-05-05T10:54:54.153Z,25.92
2023-05-05T10:57:23.202Z,26.90
2023-05-05T10:59:50.033Z,28.92
2023-05-05T11:02:27.448Z,29.92
2023-05-05T11:05:02.973Z,31.47
2023-05-05T11:07:29.750Z,32.03
2023-05-05T11:10:01.054Z,32.67
2023-05-05T11:12:28.158Z,33.29
2023-05-05T11:15:13.858Z,33.10
2023-05-05T11:17:44.038Z,33.52
2023-05-05T11:20:10.923Z,33.39
2023-05-05T11:22:56.507Z,33.17
2023-05-05T11:25:43.971Z,33.08
2023-05-05T11:28:15.904Z,34.66
2023-05-05T11:30:55.264Z,34.91
2023-05-05T11:33:32.028Z,35.21
2023-05-05T11:35:59.687Z,36.10
2023-05-05T11:38:32.259Z,34.71
2023-05-05T11:41:04.069Z,35.08
2023-05-05T11:43:30.807Z,35.35
2023-05-05T11:46:11.470Z,35.22
2023-05-05T11:48:48.272Z,35.10
2023-05-05T11:51:15.962Z,35.33
2023-05-05T11:53:43.649Z,34.81
2023-05-05T11:56:11.466Z,35.08
2023-05-05T11:58:38.216Z,35.61
2023-05-05T12:01:06.058Z,34.97
2023-05-05T12:03:36.218Z,35.72
2023-05-05T12:06:03.908Z,34.89
2023-05-05T12:08:40.257Z,33.74
2023-05-05T12:11:07.884Z,33.37
2023-05-05T12:13:34.945Z,33.20
2023-05-05T12:16:12.238Z,34.57
2023-05-05T12:18:39.555Z,34.82
2023-05-05T12:21:16.265Z,34.80
2023-05-05T12:23:42.864Z,33.96
2023-05-05T12:26:29.202Z,35.17
2023-05-05T12:28:56.772Z,34.41
2023-05-05T12:31:33.682Z,33.86
2023-05-05T12:34:01.364Z,33.98
2023-05-05T12:36:30.483Z,34.59
2023-05-05T12:38:57.525Z,34.56
2023-05-05T12:41:24.494Z,34.82
2023-05-05T12:43:58.687Z,35.19
2023-05-05T12:46:25.894Z,36.24
2023-05-05T12:48:59.773Z,35.91
2023-05-05T12:51:27.572Z,36.22
2023-05-05T12:54:01.895Z,35.45
2023-05-05T12:56:39.961Z,34.46
2023-05-05T12:59:07.077Z,34.20
2023-05-05T13:01:34.878Z,32.94
2023-05-05T13:04:05.665Z,33.06
2023-05-05T13:06:32.507Z,34.05
2023-05-05T13:08:59.253Z,35.01
2023-05-05T13:11:26.212Z,35.10
2023-05-05T13:13:52.999Z,35.29
2023-05-05T13:16:19.734Z,35.28
2023-05-05T13:18:46.967Z,35.00
2023-05-05T13:21:13.641Z,35.05
2023-05-05T13:23:44.149Z,35.17
2023-05-05T13:26:11.851Z,36.42
2023-05-05T13:28:41.584Z,35.94
2023-05-05T13:31:08.300Z,35.92
2023-05-05T13:33:35.425Z,34.44
2023-05-05T13:36:02.767Z,35.18
2023-05-05T13:38:31.644Z,35.68
2023-05-05T13:40:59.116Z,35.63
2023-05-05T13:43:25.685Z,35.55
2023-05-05T13:45:52.988Z,35.86
2023-05-05T13:48:19.873Z,36.08
2023-05-05T13:50:46.694Z,35.52
2023-05-05T13:53:13.729Z,35.64
2023-05-05T13:55:43.965Z,35.94
2023-05-05T13:58:10.916Z,35.74
2023-05-05T14:00:38.122Z,35.78
2023-05-05T14:03:05.085Z,36.01
2023-05-05T14:05:33.130Z,35.59
2023-05-05T14:07:59.763Z,35.19
2023-05-05T14:10:29.278Z,35.46
2023-05-05T14:12:56.644Z,36.00
2023-05-05T14:15:23.296Z,35.47
2023-05-05T14:17:50.208Z,37.02
2023-05-05T14:20:16.910Z,37.90
2023-05-05T14:22:43.629Z,37.60
2023-05-05T14:25:10.393Z,36.65
2023-05-05T14:27:37.134Z,36.36
2023-05-05T14:30:04.604Z,36.26
2023-05-05T14:32:31.891Z,36.47
2023-05-05T14:34:58.508Z,35.84
2023-05-05T14:37:25.796Z,36.36
2023-05-05T14:39:52.410Z,36.46
2023-05-05T14:42:19.121Z,36.32
2023-05-05T14:44:46.207Z,35.88
2023-05-05T14:47:12.790Z,36.23
2023-05-05T14:49:39.424Z,35.85
2023-05-05T14:52:06.205Z,35.71
2023-05-05T14:54:33.074Z,35.89
2023-05-05T14:56:59.797Z,36.01
2023-05-05T14:59:27.078Z,35.87
2023-05-05T15:01:53.855Z,37.02
2023-05-05T15:04:20.634Z,37.13
2023-05-05T15:06:47.233Z,37.90
2023-05-05T15:09:13.933Z,37.26
2023-05-05T15:11:40.788Z,37.66
2023-05-05T15:14:07.441Z,37.88
2023-05-05T15:16:35.348Z,37.12
2023-05-05T15:19:02.469Z,37.39
2023-05-05T15:21:29.203Z,37.86
2023-05-05T15:23:55.913Z,37.02
2023-05-05T15:26:23.370Z,37.14
2023-05-05T15:28:51.977Z,37.59
2023-05-05T15:31:18.801Z,37.81
2023-05-05T15:33:47.917Z,38.11
2023-05-05T15:36:15.682Z,38.78
2023-05-05T15:38:42.717Z,38.94
2023-05-05T15:41:09.281Z,39.10
2023-05-05T15:43:35.921Z,39.03
2023-05-05T15:46:02.633Z,39.66
2023-05-05T15:48:29.664Z,39.80
2023-05-05T15:50:56.265Z,39.68
2023-05-05T15:53:23.018Z,39.74
2023-05-05T15:55:49.654Z,40.14
2023-05-05T15:58:16.381Z,40.25
2023-05-05T16:00:43.012Z,39.99
2023-05-05T16:03:09.874Z,40.06
2023-05-05T16:05:36.535Z,40.88
2023-05-05T16:08:09.019Z,41.19
2023-05-05T16:10:36.742Z,41.69
2023-05-05T16:13:03.448Z,42.02
2023-05-05T16:15:30.159Z,42.10
2023-05-05T16:17:56.911Z,42.37
2023-05-05T16:20:23.701Z,42.44
2023-05-05T16:22:50.305Z,42.67
2023-05-05T16:25:19.196Z,43.21
2023-05-05T16:27:46.011Z,43.10
2023-05-05T16:30:14.916Z,43.44
2023-05-05T16:32:41.710Z,43.65
2023-05-05T16:35:08.721Z,43.86
2023-05-05T16:37:35.995Z,44.25
2023-05-05T16:40:04.899Z,44.81
2023-05-05T16:42:31.412Z,44.98
2023-05-05T16:44:58.059Z,45.41
2023-05-05T16:47:24.921Z,45.36
2023-05-05T16:49:52.079Z,45.64
2023-05-05T16:52:18.840Z,46.22
2023-05-05T16:54:47.303Z,46.15
2023-05-05T16:57:14.193Z,46.69
2023-05-05T16:59:41.205Z,46.96
2023-05-05T17:02:08.154Z,47.16
2023-05-05T17:04:34.928Z,47.44
2023-05-05T17:07:01.658Z,47.59
2023-05-05T17:09:28.276Z,47.78
2023-05-05T17:11:55.414Z,48.01
2023-05-05T17:14:23.731Z,48.22
2023-05-05T17:16:50.614Z,48.33
2023-05-05T17:19:17.231Z,48.23
2023-05-05T17:21:43.912Z,48.62
2023-05-05T17:24:10.826Z,48.47
2023-05-05T17:26:38.413Z,48.47
2023-05-05T17:29:05.322Z,48.78
2023-05-05T17:31:31.914Z,49.08
2023-05-05T17:33:58.893Z,49.32
2023-05-05T17:36:25.604Z,49.16
2023-05-05T17:38:52.247Z,49.69
2023-05-05T17:41:19.218Z,49.60
2023-05-05T17:43:45.986Z,50.14
2023-05-05T17:46:12.837Z,50.34
2023-05-05T17:48:39.614Z,50.69
2023-05-05T17:51:06.258Z,50.91
2023-05-05T17:53:33.651Z,51.47
2023-05-05T17:56:00.243Z,52.46
2023-05-05T17:58:26.918Z,52.68
2023-05-05T18:00:53.802Z,52.40
2023-05-05T18:03:20.546Z,52.63
2023-05-05T18:05:47.407Z,54.12
2023-05-05T18:08:14.088Z,55.84
2023-05-05T18:10:40.769Z,56.47
2023-05-05T18:13:07.433Z,57.74
2023-05-05T18:15:34.194Z,58.42
2023-05-05T18:18:00.930Z,58.70
2023-05-05T18:20:27.615Z,59.59
2023-05-05T18:22:54.210Z,59.57
2023-05-05T18:25:21.005Z,60.23
2023-05-05T18:27:47.577Z,60.92
2023-05-05T18:30:14.195Z,60.61
2023-05-05T18:32:40.788Z,59.70
2023-05-05T18:35:08.011Z,59.89
2023-05-05T18:37:35.321Z,59.98
2023-05-05T18:40:01.989Z,59.92
2023-05-05T18:42:28.621Z,60.63
2023-05-05T18:44:55.181Z,61.43
2023-05-05T18:47:21.859Z,61.56
2023-05-05T18:49:49.167Z,63.20
2023-05-05T18:52:16.366Z,63.97
2023-05-05T18:54:43.144Z,63.97
2023-05-05T18:57:10.135Z,65.34
2023-05-05T18:59:36.828Z,64.84
2023-05-05T19:02:03.809Z,65.46
2023-05-05T19:04:32.267Z,65.38
2023-05-05T19:06:59.415Z,65.41
2023-05-05T19:09:26.917Z,65.23
2023-05-05T19:11:53.600Z,65.04
2023-05-05T19:14:21.555Z,64.58
2023-05-05T19:16:48.275Z,64.83
2023-05-05T19:19:15.113Z,66.35
2023-05-05T19:21:44.372Z,67.27
2023-05-05T19:24:11.173Z,67.21
2023-05-05T19:26:37.829Z,67.07
2023-05-05T19:29:04.483Z,67.19
2023-05-05T19:31:31.548Z,67.80
2023-05-05T19:33:59.670Z,67.35
2023-05-05T19:36:27.419Z,66.85
2023-05-05T19:38:54.914Z,66.79
2023-05-05T19:41:21.622Z,67.39
2023-05-05T19:43:49.377Z,67.65
2023-05-05T19:46:16.620Z,67.83
2023-05-05T19:48:43.735Z,67.54
2023-05-05T19:51:10.427Z,68.30
2023-05-05T19:53:37.089Z,67.97
2023-05-05T19:56:04.419Z,68.49
2023-05-05T19:58:42.816Z,68.99
2023-05-05T20:01:09.419Z,69.45
2023-05-05T20:03:36.330Z,69.07
2023-05-05T20:06:03.329Z,69.62
2023-05-05T20:08:30.088Z,70.22
2023-05-05T20:10:56.787Z,69.68
2023-05-05T20:13:23.730Z,69.86
2023-05-05T20:15:50.438Z,71.08
2023-05-05T20:18:17.017Z,71.27
2023-05-05T20:20:43.666Z,71.71
2023-05-05T20:23:10.478Z,72.33
2023-05-05T20:25:37.201Z,72.48
2023-05-05T20:28:04.436Z,73.04
2023-05-05T20:30:31.077Z,73.27
2023-05-05T20:32:57.701Z,73.66
2023-05-05T20:35:25.049Z,72.84
2023-05-05T20:37:51.748Z,72.16
2023-05-05T20:40:18.569Z,72.55
2023-05-05T20:42:45.307Z,72.20
2023-05-05T20:45:11.948Z,72.49
2023-05-05T20:47:38.658Z,72.02
2023-05-05T20:50:05.955Z,72.44
2023-05-05T20:52:35.648Z,72.57
2023-05-05T20:55:02.303Z,72.31
2023-05-05T20:57:29.012Z,71.83
2023-05-05T20:59:55.934Z,71.87
2023-05-05T21:02:22.601Z,72.06
2023-05-05T21:04:49.852Z,72.58
2023-05-05T21:07:16.416Z,72.35
2023-05-05T21:09:45.520Z,72.27
2023-05-05T21:12:12.271Z,72.43
2023-05-05T21:14:42.661Z,72.25
2023-05-05T21:17:09.692Z,72.07
2023-05-05T21:19:36.225Z,72.02
2023-05-05T21:22:03.862Z,72.18
2023-05-05T21:24:30.603Z,72.40
2023-05-05T21:26:57.181Z,72.35
2023-05-05T21:29:26.737Z,72.44
2023-05-05T21:31:53.645Z,72.37
2023-05-05T21:34:20.334Z,71.99
2023-05-05T21:36:47.123Z,72.03
2023-05-05T21:39:13.686Z,72.44
2023-05-05T21:41:40.543Z,72.94
2023-05-05T21:44:07.219Z,72.34
2023-05-05T21:46:33.896Z,71.62
2023-05-05T21:49:10.645Z,71.38
2023-05-05T21:51:37.363Z,71.63
2023-05-05T21:54:03.979Z,72.37
2023-05-05T21:56:32.301Z,72.41
2023-05-05T21:58:59.388Z,72.16
2023-05-05T22:01:25.992Z,72.13
2023-05-05T22:03:53.336Z,72.58
2023-05-05T22:06:20.584Z,72.38
2023-05-05T22:08:47.692Z,72.27
2023-05-05T22:11:14.478Z,71.20
2023-05-05T22:13:41.361Z,71.04
2023-05-05T22:16:08.288Z,71.76
2023-05-05T22:18:35.519Z,72.45
2023-05-05T22:21:02.702Z,72.31
2023-05-05T22:23:29.300Z,71.88
2023-05-05T22:25:56.693Z,71.55
2023-05-05T22:28:23.307Z,71.44
2023-05-05T22:30:50.181Z,71.13
2023-05-05T22:33:16.864Z,70.67
2023-05-05T22:35:43.398Z,70.63
2023-05-05T22:38:10.027Z,70.60
2023-05-05T22:40:36.769Z,70.82
2023-05-05T22:43:03.496Z,70.81
2023-05-05T22:45:30.220Z,70.60
2023-05-05T22:47:56.998Z,70.64
2023-05-05T22:50:23.718Z,70.71
2023-05-05T22:52:50.427Z,71.07
2023-05-05T22:55:17.117Z,71.27
2023-05-05T22:57:43.747Z,72.10
2023-05-05T23:00:10.534Z,71.93
2023-05-05T23:02:37.302Z,72.09
2023-05-05T23:05:04.672Z,72.29
2023-05-05T23:07:31.705Z,72.62
2023-05-05T23:09:58.415Z,72.69
2023-05-05T23:12:25.410Z,72.76
2023-05-05T23:14:52.106Z,72.75
2023-05-05T23:17:18.987Z,72.71
2023-05-05T23:19:47.173Z,73.18
2023-05-05T23:22:13.828Z,73.25
2023-05-05T23:24:40.536Z,73.65
2023-05-05T23:27:07.107Z,74.51
2023-05-05T23:29:33.824Z,74.77
2023-05-05T23:32:00.407Z,74.36
2023-05-05T23:34:26.998Z,74.37
2023-05-05T23:36:53.544Z,74.83
2023-05-05T23:39:20.260Z,74.76
2023-05-05T23:41:46.905Z,74.48
2023-05-05T23:44:13.552Z,74.60
2023-05-05T23:46:40.389Z,74.61
2023-05-05T23:49:07.544Z,74.32
2023-05-05T23:51:34.232Z,75.21
2023-05-05T23:54:01.135Z,74.50
2023-05-05T23:56:27.903Z,73.77
2023-05-05T23:58:54.479Z,73.70
